createdAt,value
2023-03-16T00:01:59.029Z,19.40
2023-03-16T00:07:00.877Z,14.00
2023-03-16T00:12:03.746Z,12.10
2023-03-16T00:17:06.654Z,14.30
2023-03-16T00:22:08.511Z,9.70
2023-03-16T00:27:14.724Z,17.10
2023-03-16T00:32:20.768Z,20.00
2023-03-16T00:37:25.223Z,13.40
2023-03-16T00:42:29.909Z,15.00
2023-03-16T00:47:34.763Z,19.90
2023-03-16T00:52:37.808Z,19.40
2023-03-16T00:57:39.587Z,16.30
2023-03-16T01:02:42.195Z,29.70
2023-03-16T01:07:45.305Z,21.30
2023-03-16T01:12:47.174Z,16.90
2023-03-16T01:17:49.401Z,19.40
2023-03-16T01:22:51.365Z,23.00
2023-03-16T01:27:53.753Z,22.50
2023-03-16T01:32:55.881Z,22.30
2023-03-16T01:37:58.328Z,40.90
2023-03-16T01:43:04.586Z,37.20
2023-03-16T01:48:15.715Z,21.10
2023-03-16T01:53:19.904Z,29.90
2023-03-16T01:58:22.516Z,27.50
2023-03-16T02:03:26.827Z,25.00
2023-03-16T02:08:37.641Z,22.70
2023-03-16T02:13:39.547Z,22.80
2023-03-16T02:18:41.584Z,56.00
2023-03-16T02:23:46.045Z,46.10
2023-03-16T02:29:17.939Z,21.40
2023-03-16T02:34:21.510Z,17.90
2023-03-16T02:39:24.000Z,14.60
2023-03-16T02:44:37.010Z,13.70
2023-03-16T02:49:44.116Z,15.60
2023-03-16T02:54:45.901Z,34.80
2023-03-16T02:59:48.544Z,41.10
2023-03-16T03:04:54.447Z,16.80
2023-03-16T03:09:58.704Z,15.00
2023-03-16T03:15:00.926Z,16.70
2023-03-16T03:20:13.724Z,15.70
2023-03-16T03:25:18.426Z,18.00
2023-03-16T03:30:22.801Z,45.20
2023-03-16T03:35:24.661Z,47.30
2023-03-16T03:40:27.350Z,23.10
2023-03-16T03:45:34.547Z,20.20
2023-03-16T03:50:38.586Z,18.90
2023-03-16T03:56:03.356Z,16.90
2023-03-16T04:01:05.336Z,20.10
2023-03-16T04:06:08.298Z,52.30
2023-03-16T04:11:11.957Z,55.40
2023-03-16T04:16:16.350Z,23.70
2023-03-16T04:21:21.169Z,18.00
2023-03-16T04:26:22.985Z,21.70
2023-03-16T04:31:25.085Z,20.10
2023-03-16T04:36:27.444Z,20.10
2023-03-16T04:41:30.397Z,37.50
2023-03-16T04:46:36.389Z,36.30
2023-03-16T04:51:42.639Z,19.20
2023-03-16T04:56:48.016Z,18.60
2023-03-16T05:02:10.012Z,18.50
2023-03-16T05:07:12.504Z,25.30
2023-03-16T05:12:16.508Z,20.40
2023-03-16T05:17:19.243Z,45.50
2023-03-16T05:22:21.245Z,55.70
2023-03-16T05:27:49.613Z,25.20
2023-03-16T05:32:57.935Z,27.90
2023-03-16T05:38:00.362Z,34.50
2023-03-16T05:43:04.426Z,35.50
2023-03-16T05:48:08.337Z,20.80
2023-03-16T05:53:13.855Z,93.60
2023-03-16T05:58:16.414Z,167.20
2023-03-16T06:03:18.445Z,58.60
2023-03-16T06:08:21.084Z,41.90
2023-03-16T06:13:24.214Z,38.30
2023-03-16T06:18:26.270Z,64.50
2023-03-16T06:23:28.160Z,42.20
2023-03-16T06:28:31.124Z,23.80
2023-03-16T06:33:33.187Z,23.10
2023-03-16T06:38:35.106Z,20.40
2023-03-16T06:43:39.837Z,28.60
2023-03-16T06:48:42.145Z,17.20
2023-03-16T06:53:44.168Z,23.60
2023-03-16T06:58:46.148Z,16.10
2023-03-16T07:03:48.145Z,15.60
2023-03-16T07:08:57.472Z,14.20
2023-03-16T07:13:59.621Z,17.10
2023-03-16T07:19:02.095Z,11.70
2023-03-16T07:24:03.990Z,12.00
2023-03-16T07:29:10.096Z,12.50
2023-03-16T07:34:12.332Z,12.10
2023-03-16T07:39:18.634Z,19.90
2023-03-16T07:44:20.851Z,15.20
2023-03-16T07:49:23.570Z,13.60
2023-03-16T08:00:35.909Z,12.00
2023-03-16T08:05:38.016Z,13.60
2023-03-16T08:10:44.186Z,13.50
2023-03-16T08:15:58.360Z,10.10
2023-03-16T08:21:08.616Z,9.40
2023-03-16T08:26:10.838Z,9.30
2023-03-16T08:31:14.929Z,10.70
2023-03-16T08:36:25.819Z,10.20
2023-03-16T08:41:30.983Z,8.20
2023-03-16T08:46:34.577Z,8.90
2023-03-16T08:51:37.133Z,8.00
2023-03-16T08:56:39.105Z,4.50
2023-03-16T09:01:41.395Z,4.50
2023-03-16T09:06:43.195Z,6.70
2023-03-16T09:11:45.298Z,6.10
2023-03-16T09:16:47.048Z,4.60
2023-03-16T09:21:48.776Z,7.40
2023-03-16T09:26:50.722Z,5.40
2023-03-16T09:31:52.765Z,5.60
2023-03-16T09:36:55.473Z,4.50
2023-03-16T09:42:19.249Z,2.80
2023-03-16T09:47:34.096Z,2.80
2023-03-16T09:52:58.759Z,2.50
2023-03-16T09:58:04.696Z,2.20
2023-03-16T10:03:25.248Z,3.20
2023-03-16T10:08:40.947Z,2.40
2023-03-16T10:13:58.374Z,3.00
2023-03-16T10:19:11.524Z,2.20
2023-03-16T10:24:22.099Z,3.00
2023-03-16T10:29:23.750Z,2.20
2023-03-16T10:34:26.152Z,2.60
2023-03-16T10:39:36.694Z,3.20
2023-03-16T10:44:40.244Z,2.30
2023-03-16T10:49:48.717Z,1.90
2023-03-16T10:55:07.816Z,6.40
2023-03-16T11:00:16.030Z,2.90
2023-03-16T11:05:17.726Z,2.70
2023-03-16T11:10:46.001Z,3.60
2023-03-16T11:15:57.865Z,4.40
2023-03-16T11:21:12.757Z,2.90
2023-03-16T11:26:23.198Z,2.50
2023-03-16T11:31:43.065Z,2.10
2023-03-16T11:36:56.755Z,2.10
2023-03-16T11:42:07.833Z,1.70
2023-03-16T11:47:34.141Z,1.40
2023-03-16T11:52:47.005Z,2.50
2023-03-16T11:58:03.997Z,2.10
2023-03-16T12:03:25.231Z,3.10
2023-03-16T12:08:48.695Z,2.50
2023-03-16T12:13:53.544Z,2.30
2023-03-16T12:19:06.745Z,3.00
2023-03-16T12:24:18.198Z,4.20
2023-03-16T12:29:32.818Z,5.60
2023-03-16T12:35:00.984Z,2.30
2023-03-16T12:40:09.342Z,2.00
2023-03-16T12:45:34.188Z,2.30
2023-03-16T12:50:49.261Z,2.60
2023-03-16T12:55:51.633Z,2.10
2023-03-16T13:00:59.588Z,1.90
2023-03-16T13:06:03.586Z,2.10
2023-03-16T13:11:12.148Z,1.20
2023-03-16T13:16:25.918Z,1.50
2023-03-16T13:21:35.855Z,3.00
2023-03-16T13:26:49.927Z,1.80
2023-03-16T13:31:53.148Z,2.40
2023-03-16T13:36:57.259Z,1.80
2023-03-16T13:42:09.808Z,1.90
2023-03-16T13:47:20.199Z,1.80
2023-03-16T13:52:34.349Z,1.70
2023-03-16T13:57:39.184Z,1.90
2023-03-16T14:02:43.617Z,2.20
2023-03-16T14:07:51.139Z,2.20
2023-03-16T14:12:58.766Z,1.60
2023-03-16T14:18:37.394Z,1.50
2023-03-16T14:23:47.863Z,2.50
2023-03-16T14:29:07.356Z,1.60
2023-03-16T14:34:29.677Z,3.60
2023-03-16T14:39:31.432Z,2.50
2023-03-16T14:44:35.959Z,2.80
2023-03-16T14:49:40.987Z,1.70
2023-03-16T14:54:44.566Z,2.20
2023-03-16T14:59:46.899Z,1.90
2023-03-16T15:04:49.497Z,1.90
2023-03-16T15:09:53.901Z,1.50
2023-03-16T15:15:14.304Z,2.20
2023-03-16T15:20:24.276Z,1.40
2023-03-16T15:25:35.773Z,2.40
2023-03-16T15:30:38.207Z,1.90
2023-03-16T15:35:41.611Z,2.00
2023-03-16T15:40:45.477Z,1.60
2023-03-16T15:45:47.982Z,1.70
2023-03-16T15:51:25.690Z,2.20
2023-03-16T15:56:30.919Z,2.80
2023-03-16T16:01:40.155Z,2.60
2023-03-16T16:06:42.479Z,2.90
2023-03-16T16:11:47.155Z,2.70
2023-03-16T16:16:48.947Z,2.30
2023-03-16T16:21:50.698Z,2.90
2023-03-16T16:26:55.271Z,2.60
2023-03-16T16:31:57.860Z,3.30
2023-03-16T16:36:59.701Z,3.60
2023-03-16T16:42:01.897Z,4.20
2023-03-16T16:47:06.358Z,4.50
2023-03-16T16:52:15.264Z,5.20
2023-03-16T16:57:20.849Z,4.30
2023-03-16T17:02:32.225Z,4.60
2023-03-16T17:07:33.950Z,7.30
2023-03-16T17:12:35.929Z,12.00
2023-03-16T17:17:37.669Z,17.70
2023-03-16T17:22:39.369Z,21.00
2023-03-16T17:27:42.926Z,17.70
2023-03-16T17:32:44.667Z,20.90
2023-03-16T17:37:47.973Z,19.60
2023-03-16T17:42:50.444Z,19.10
2023-03-16T17:47:54.042Z,20.70
2023-03-16T17:52:56.700Z,15.20
2023-03-16T17:57:59.189Z,14.60
2023-03-16T18:03:04.602Z,18.60
2023-03-16T18:08:26.181Z,15.70
2023-03-16T18:13:32.775Z,11.80
2023-03-16T18:18:40.285Z,12.90
2023-03-16T18:23:42.291Z,18.20
2023-03-16T18:28:44.687Z,12.90
2023-03-16T18:33:52.736Z,15.80
2023-03-16T18:38:58.618Z,15.20
2023-03-16T18:44:17.661Z,11.60
2023-03-16T18:49:32.698Z,10.70
2023-03-16T18:54:38.899Z,13.50
2023-03-16T18:59:41.122Z,14.00
2023-03-16T19:04:43.122Z,16.70
2023-03-16T19:09:45.079Z,34.00
2023-03-16T19:14:47.782Z,27.50
2023-03-16T19:19:49.754Z,17.60
2023-03-16T19:24:55.388Z,16.90
2023-03-16T19:29:58.924Z,16.40
2023-03-16T19:35:01.231Z,14.80
2023-03-16T19:40:03.369Z,15.90
2023-03-16T19:45:06.828Z,15.00
2023-03-16T19:50:15.869Z,14.80
2023-03-16T19:55:21.127Z,30.50
2023-03-16T20:00:26.112Z,73.40
2023-03-16T20:05:31.575Z,90.80
2023-03-16T20:10:33.573Z,82.00
2023-03-16T20:15:37.650Z,44.30
2023-03-16T20:20:39.653Z,42.50
2023-03-16T20:25:41.792Z,30.30
2023-03-16T20:30:43.591Z,30.70
2023-03-16T20:35:46.897Z,26.30
2023-03-16T20:40:52.246Z,22.20
2023-03-16T20:45:57.384Z,21.90
2023-03-16T20:51:00.659Z,23.30
2023-03-16T20:56:03.213Z,87.10
2023-03-16T21:01:05.780Z,110.40
2023-03-16T21:06:23.686Z,61.70
2023-03-16T21:11:37.320Z,35.40
2023-03-16T21:16:40.608Z,42.20
2023-03-16T21:21:42.579Z,39.70
2023-03-16T21:26:47.063Z,36.90
2023-03-16T21:31:49.614Z,43.70
2023-03-16T21:36:51.620Z,47.00
2023-03-16T21:41:53.711Z,75.20
2023-03-16T21:46:58.471Z,75.20
2023-03-16T21:52:01.512Z,73.60
2023-03-16T21:57:13.929Z,90.10
2023-03-16T22:02:27.729Z,111.90
2023-03-16T22:07:29.601Z,112.20
2023-03-16T22:12:31.960Z,73.00
2023-03-16T22:17:35.989Z,70.60
2023-03-16T22:22:37.704Z,69.50
2023-03-16T22:27:40.102Z,59.30
2023-03-16T22:32:42.796Z,42.00
2023-03-16T22:37:44.797Z,40.50
2023-03-16T22:42:47.564Z,45.70
2023-03-16T22:48:19.605Z,34.90
2023-03-16T22:53:45.956Z,85.70
2023-03-16T22:58:51.343Z,94.90
2023-03-16T23:03:53.791Z,68.30
2023-03-16T23:08:56.093Z,52.30
2023-03-16T23:13:59.738Z,50.70
2023-03-16T23:19:03.250Z,30.60
2023-03-16T23:24:05.705Z,36.00
2023-03-16T23:29:08.106Z,57.70
2023-03-16T23:34:12.229Z,65.50
2023-03-16T23:39:14.376Z,99.20
2023-03-16T23:44:18.669Z,70.30
2023-03-16T23:49:23.578Z,53.00
2023-03-16T23:54:30.815Z,53.00
2023-03-16T23:59:33.176Z,43.50
